createdAt,value
2018-11-26T00:01:14.440Z,51.10
2018-11-26T00:03:46.271Z,53.10
2018-11-26T00:06:16.281Z,49.13
2018-11-26T00:08:46.775Z,49.00
2018-11-26T00:11:29.429Z,52.93
2018-11-26T00:13:59.609Z,48.93
2018-11-26T00:16:29.694Z,50.30
2018-11-26T00:19:00.355Z,51.13
2018-11-26T00:21:30.424Z,46.97
2018-11-26T00:24:01.037Z,51.27
2018-11-26T00:26:31.098Z,51.10
2018-11-26T00:29:02.089Z,48.40
2018-11-26T00:31:32.361Z,46.10
2018-11-26T00:34:03.052Z,46.83
2018-11-26T00:36:33.129Z,46.40
2018-11-26T00:39:06.046Z,49.50
2018-11-26T00:41:37.641Z,47.10
2018-11-26T00:44:08.467Z,43.73
2018-11-26T00:46:38.548Z,46.47
2018-11-26T00:49:08.617Z,46.90
2018-11-26T00:51:38.575Z,46.57
2018-11-26T00:54:09.920Z,46.90
2018-11-26T00:56:41.110Z,47.57
2018-11-26T00:59:11.127Z,48.13
2018-11-26T01:01:41.716Z,46.07
2018-11-26T01:04:11.770Z,48.27
2018-11-26T01:06:42.895Z,50.80
2018-11-26T01:09:12.860Z,47.67
2018-11-26T01:11:44.248Z,51.70
2018-11-26T01:14:14.232Z,50.43
2018-11-26T01:16:44.292Z,50.53
2018-11-26T01:19:15.772Z,50.63
2018-11-26T01:21:47.320Z,50.00
2018-11-26T01:24:18.791Z,51.37
2018-11-26T01:26:50.109Z,52.73
2018-11-26T01:29:21.724Z,55.43
2018-11-26T01:31:51.820Z,53.70
2018-11-26T01:34:22.717Z,54.47
2018-11-26T01:36:53.589Z,54.27
2018-11-26T01:39:24.313Z,54.43
2018-11-26T01:41:55.975Z,53.53
2018-11-26T01:44:25.971Z,52.17
2018-11-26T01:46:57.342Z,53.87
2018-11-26T01:49:28.053Z,52.50
2018-11-26T01:51:58.744Z,54.73
2018-11-26T01:54:29.944Z,53.70
2018-11-26T01:57:00.097Z,52.00
2018-11-26T01:59:30.384Z,52.47
2018-11-26T02:02:00.391Z,51.80
2018-11-26T02:04:31.544Z,47.43
2018-11-26T02:07:01.950Z,49.90
2018-11-26T02:09:32.692Z,49.17
2018-11-26T02:12:03.443Z,49.03
2018-11-26T02:14:33.477Z,49.07
2018-11-26T02:17:04.156Z,46.83
2018-11-26T02:19:36.585Z,45.73
2018-11-26T02:22:07.377Z,46.77
2018-11-26T02:24:39.401Z,46.10
2018-11-26T02:27:10.168Z,47.03
2018-11-26T02:29:41.661Z,46.53
2018-11-26T02:32:11.806Z,45.60
2018-11-26T02:34:43.031Z,46.33
2018-11-26T02:37:13.144Z,43.00
2018-11-26T02:39:43.231Z,48.17
2018-11-26T02:42:13.754Z,43.57
2018-11-26T02:44:45.455Z,44.97
2018-11-26T02:47:16.894Z,46.10
2018-11-26T02:49:47.656Z,44.37
2018-11-26T02:52:18.277Z,41.90
2018-11-26T02:54:49.076Z,41.77
2018-11-26T02:57:19.368Z,41.80
2018-11-26T02:59:50.536Z,43.87
2018-11-26T03:02:20.610Z,42.30
2018-11-26T03:04:51.191Z,40.90
2018-11-26T03:07:22.600Z,41.20
2018-11-26T03:09:52.661Z,37.90
2018-11-26T03:12:23.777Z,38.70
2018-11-26T03:14:54.340Z,42.77
2018-11-26T03:17:25.146Z,42.53
2018-11-26T03:19:56.444Z,43.00
2018-11-26T03:22:27.023Z,42.87
2018-11-26T03:24:57.002Z,39.80
2018-11-26T03:27:27.999Z,41.97
2018-11-26T03:29:58.657Z,41.13
2018-11-26T03:32:28.847Z,43.07
2018-11-26T03:34:59.014Z,39.40
2018-11-26T03:37:29.640Z,41.40
2018-11-26T03:40:00.591Z,40.57
2018-11-26T03:42:31.179Z,40.40
2018-11-26T03:45:02.457Z,36.67
2018-11-26T03:47:32.960Z,38.63
2018-11-26T03:50:04.053Z,40.90
2018-11-26T03:52:35.711Z,37.70
2018-11-26T03:55:07.720Z,37.50
2018-11-26T03:57:39.080Z,40.87
2018-11-26T04:00:13.140Z,38.60
2018-11-26T04:02:44.028Z,37.20
2018-11-26T04:05:15.334Z,37.03
2018-11-26T04:07:47.613Z,38.73
2018-11-26T04:10:17.789Z,37.73
2018-11-26T04:12:49.041Z,37.67
2018-11-26T04:15:21.737Z,39.67
2018-11-26T04:17:51.946Z,37.80
2018-11-26T04:20:22.846Z,35.93
2018-11-26T04:22:53.026Z,37.30
2018-11-26T04:25:23.666Z,38.60
2018-11-26T04:27:54.383Z,38.20
2018-11-26T04:30:25.186Z,37.90
2018-11-26T04:32:55.989Z,37.40
2018-11-26T04:35:26.861Z,37.77
2018-11-26T04:37:57.579Z,33.93
2018-11-26T04:40:28.677Z,34.50
2018-11-26T04:42:59.840Z,36.93
2018-11-26T04:45:30.690Z,31.10
2018-11-26T04:48:02.551Z,35.10
2018-11-26T04:50:34.131Z,34.50
2018-11-26T04:53:05.451Z,33.77
2018-11-26T04:55:35.441Z,35.73
2018-11-26T04:58:06.089Z,35.60
2018-11-26T05:00:37.517Z,34.33
2018-11-26T05:03:07.702Z,33.00
2018-11-26T05:05:37.748Z,35.20
2018-11-26T05:08:08.009Z,33.60
2018-11-26T05:10:38.828Z,32.77
2018-11-26T05:13:08.871Z,33.03
2018-11-26T05:15:39.077Z,29.77
2018-11-26T05:18:09.132Z,30.73
2018-11-26T05:20:39.248Z,30.63
2018-11-26T05:23:10.089Z,32.30
2018-11-26T05:25:40.133Z,31.97
2018-11-26T05:28:11.152Z,34.00
2018-11-26T05:30:41.706Z,34.83
2018-11-26T05:33:11.900Z,36.53
2018-11-26T05:35:42.527Z,33.50
2018-11-26T05:38:13.476Z,35.50
2018-11-26T05:40:43.472Z,32.10
2018-11-26T05:43:14.064Z,32.27
2018-11-26T05:45:45.604Z,33.20
2018-11-26T05:48:16.316Z,33.20
2018-11-26T05:50:46.991Z,32.00
2018-11-26T05:53:17.251Z,30.40
2018-11-26T05:55:47.473Z,30.73
2018-11-26T05:58:18.477Z,28.20
2018-11-26T06:00:49.793Z,30.30
2018-11-26T06:03:19.848Z,29.80
2018-11-26T06:05:51.253Z,26.80
2018-11-26T06:08:21.831Z,29.43
2018-11-26T06:10:51.924Z,26.93
2018-11-26T06:13:21.982Z,26.83
2018-11-26T06:15:52.672Z,30.00
2018-11-26T06:18:23.787Z,27.93
2018-11-26T06:20:54.640Z,29.30
2018-11-26T06:23:27.916Z,31.43
2018-11-26T06:25:57.877Z,29.30
2018-11-26T06:28:28.193Z,30.53
2018-11-26T06:30:59.000Z,28.63
2018-11-26T06:33:29.628Z,28.63
2018-11-26T06:36:00.222Z,28.20
2018-11-26T06:38:30.379Z,25.00
2018-11-26T06:41:01.146Z,26.60
2018-11-26T06:43:32.665Z,29.40
2018-11-26T06:46:02.980Z,59.03
2018-11-26T06:48:33.872Z,108.50
2018-11-26T06:51:04.108Z,67.03
2018-11-26T06:53:35.129Z,53.53
2018-11-26T06:56:06.444Z,38.97
2018-11-26T06:58:37.054Z,57.37
2018-11-26T07:01:07.629Z,50.47
2018-11-26T07:03:38.474Z,53.60
2018-11-26T07:06:08.772Z,30.50
2018-11-26T07:08:38.849Z,39.53
2018-11-26T07:11:09.533Z,46.77
2018-11-26T07:13:41.184Z,32.47
2018-11-26T07:16:11.251Z,39.87
2018-11-26T07:18:43.250Z,40.57
2018-11-26T07:21:13.921Z,29.60
2018-11-26T07:23:44.058Z,30.50
2018-11-26T07:26:15.037Z,35.83
2018-11-26T07:28:45.661Z,27.90
2018-11-26T07:31:16.847Z,26.50
2018-11-26T07:33:47.776Z,31.07
2018-11-26T07:36:18.548Z,28.33
2018-11-26T07:38:48.545Z,29.20
2018-11-26T07:41:19.497Z,27.17
2018-11-26T07:43:51.019Z,28.80
2018-11-26T07:46:21.249Z,26.87
2018-11-26T07:48:53.044Z,27.63
2018-11-26T07:51:23.072Z,28.10
2018-11-26T07:53:54.033Z,27.73
2018-11-26T07:56:25.353Z,21.70
2018-11-26T07:58:56.652Z,26.70
2018-11-26T08:01:27.562Z,27.10
2018-11-26T08:03:58.247Z,27.97
2018-11-26T08:06:28.212Z,27.70
2018-11-26T08:08:59.529Z,28.87
2018-11-26T08:11:30.112Z,28.17
2018-11-26T08:14:00.256Z,27.50
2018-11-26T08:16:30.390Z,26.67
2018-11-26T08:19:00.466Z,28.47
2018-11-26T08:21:31.205Z,28.57
2018-11-26T08:24:02.521Z,28.97
2018-11-26T08:26:32.586Z,27.00
2018-11-26T08:29:03.384Z,26.30
2018-11-26T08:31:35.092Z,28.10
2018-11-26T08:34:05.889Z,26.67
2018-11-26T08:36:41.473Z,26.33
2018-11-26T08:39:19.043Z,29.43
2018-11-26T08:41:53.027Z,26.30
2018-11-26T08:44:27.767Z,26.67
2018-11-26T08:47:04.533Z,27.00
2018-11-26T08:49:35.083Z,27.70
2018-11-26T08:52:05.904Z,29.10
2018-11-26T08:54:37.133Z,28.90
2018-11-26T08:57:07.923Z,27.17
2018-11-26T08:59:37.880Z,28.00
2018-11-26T09:02:10.000Z,26.10
2018-11-26T09:04:46.355Z,26.67
2018-11-26T09:07:16.309Z,27.47
2018-11-26T09:09:47.752Z,28.03
2018-11-26T09:12:17.747Z,28.20
2018-11-26T09:14:47.835Z,26.90
2018-11-26T09:17:18.777Z,27.27
2018-11-26T09:19:49.330Z,28.40
2018-11-26T09:22:19.960Z,26.27
2018-11-26T09:24:51.487Z,30.33
2018-11-26T09:27:21.686Z,30.63
2018-11-26T09:29:51.869Z,28.13
2018-11-26T09:32:21.911Z,29.20
2018-11-26T09:34:52.665Z,26.20
2018-11-26T09:37:23.320Z,27.23
2018-11-26T09:39:53.389Z,35.13
2018-11-26T09:42:24.795Z,45.03
2018-11-26T09:44:54.869Z,36.77
2018-11-26T09:47:25.453Z,30.07
2018-11-26T09:49:55.504Z,29.47
2018-11-26T09:52:26.764Z,26.10
2018-11-26T09:54:57.620Z,27.50
2018-11-26T09:57:27.706Z,30.60
2018-11-26T09:59:58.459Z,29.60
2018-11-26T10:02:29.165Z,24.77
2018-11-26T10:05:00.449Z,26.93
2018-11-26T10:07:31.761Z,26.67
2018-11-26T10:10:02.073Z,26.57
2018-11-26T10:12:33.334Z,25.30
2018-11-26T10:15:04.292Z,28.30
2018-11-26T10:17:34.491Z,27.47
2018-11-26T10:20:04.949Z,25.70
2018-11-26T10:22:35.593Z,24.73
2018-11-26T10:25:06.659Z,25.17
2018-11-26T10:27:36.872Z,28.13
2018-11-26T10:30:12.792Z,26.03
2018-11-26T10:32:43.355Z,27.03
2018-11-26T10:35:16.792Z,27.03
2018-11-26T10:37:49.439Z,26.43
2018-11-26T10:40:23.595Z,27.60
2018-11-26T10:42:55.126Z,26.70
2018-11-26T10:45:26.264Z,26.97
2018-11-26T10:47:57.164Z,29.67
2018-11-26T10:50:28.786Z,29.40
2018-11-26T10:53:00.132Z,26.73
2018-11-26T10:55:34.035Z,27.87
2018-11-26T10:58:04.539Z,27.07
2018-11-26T11:00:39.703Z,28.00
2018-11-26T11:03:10.391Z,30.17
2018-11-26T11:05:41.313Z,27.73
2018-11-26T11:08:13.265Z,28.23
2018-11-26T11:10:43.489Z,30.97
2018-11-26T11:13:15.158Z,29.20
2018-11-26T11:15:45.405Z,30.13
2018-11-26T11:18:16.060Z,30.77
2018-11-26T11:20:47.540Z,30.90
2018-11-26T11:23:18.448Z,31.37
2018-11-26T11:28:10.775Z,31.80
2018-11-26T11:30:40.941Z,30.50
2018-11-26T11:35:40.001Z,29.17
2018-11-26T11:38:10.791Z,28.37
2018-11-26T11:40:41.835Z,29.97
2018-11-26T11:43:12.094Z,32.90
2018-11-26T11:45:42.618Z,29.53
2018-11-26T11:48:12.874Z,31.17
2018-11-26T11:50:43.954Z,31.30
2018-11-26T11:53:14.107Z,29.90
2018-11-26T11:55:44.097Z,30.97
2018-11-26T11:58:14.223Z,30.20
2018-11-26T12:00:46.188Z,29.60
2018-11-26T12:03:21.022Z,31.83
2018-11-26T12:05:51.077Z,30.53
2018-11-26T12:08:22.587Z,29.43
2018-11-26T12:10:52.738Z,31.90
2018-11-26T12:13:23.574Z,30.03
2018-11-26T12:15:54.315Z,31.10
2018-11-26T12:18:25.767Z,29.27
2018-11-26T12:20:57.913Z,31.90
2018-11-26T12:23:28.949Z,31.97
2018-11-26T12:26:00.127Z,28.33
2018-11-26T12:28:31.866Z,28.80
2018-11-26T12:31:03.125Z,28.97
2018-11-26T12:33:33.158Z,29.80
2018-11-26T12:36:03.192Z,27.87
2018-11-26T12:38:34.143Z,27.90
2018-11-26T12:41:05.675Z,29.73
2018-11-26T12:43:37.824Z,29.40
2018-11-26T12:46:09.566Z,29.30
2018-11-26T12:48:40.762Z,31.63
2018-11-26T12:51:12.590Z,28.80
2018-11-26T12:53:43.556Z,28.73
2018-11-26T12:56:14.315Z,29.13
2018-11-26T12:58:44.586Z,26.67
2018-11-26T13:01:15.305Z,27.30
2018-11-26T13:03:46.095Z,29.20
2018-11-26T13:06:17.376Z,26.57
2018-11-26T13:08:48.046Z,27.50
2018-11-26T13:11:19.879Z,26.90
2018-11-26T13:13:51.323Z,26.30
2018-11-26T13:16:21.346Z,26.60
2018-11-26T13:18:52.103Z,26.90
2018-11-26T13:21:23.110Z,27.70
2018-11-26T13:23:53.088Z,27.73
2018-11-26T13:26:23.679Z,27.70
2018-11-26T13:28:53.744Z,25.83
2018-11-26T13:31:24.903Z,27.00
2018-11-26T13:33:55.040Z,25.57
2018-11-26T13:36:25.878Z,25.60
2018-11-26T13:38:56.229Z,27.47
2018-11-26T13:41:27.562Z,25.73
2018-11-26T13:43:58.829Z,26.50
2018-11-26T13:46:28.933Z,25.67
2018-11-26T13:48:59.082Z,24.70
2018-11-26T13:51:29.902Z,25.03
2018-11-26T13:54:00.567Z,26.30
2018-11-26T13:56:30.607Z,25.20
2018-11-26T13:59:02.357Z,24.30
2018-11-26T14:01:32.778Z,25.17
2018-11-26T14:04:04.297Z,24.97
2018-11-26T14:06:34.879Z,25.53
2018-11-26T14:09:07.823Z,26.20
2018-11-26T14:11:39.576Z,24.43
2018-11-26T14:14:11.263Z,26.63
2018-11-26T14:16:41.290Z,23.83
2018-11-26T14:19:12.022Z,23.80
2018-11-26T14:21:42.763Z,24.63
2018-11-26T14:24:13.265Z,25.33
2018-11-26T14:26:43.903Z,23.40
2018-11-26T14:29:14.668Z,25.40
2018-11-26T14:31:45.478Z,23.87
2018-11-26T14:34:16.322Z,24.60
2018-11-26T14:36:46.994Z,23.27
2018-11-26T14:39:17.086Z,23.10
2018-11-26T14:41:47.857Z,25.50
2018-11-26T14:44:18.070Z,24.47
2018-11-26T14:46:48.811Z,22.73
2018-11-26T14:49:19.566Z,22.97
2018-11-26T14:51:49.891Z,21.87
2018-11-26T14:54:20.486Z,24.57
2018-11-26T14:56:51.569Z,24.33
2018-11-26T14:59:21.730Z,21.97
2018-11-26T15:01:52.413Z,23.00
2018-11-26T15:04:23.466Z,21.93
2018-11-26T15:06:54.579Z,22.10
2018-11-26T15:09:25.349Z,22.50
2018-11-26T15:11:56.102Z,21.67
2018-11-26T15:14:27.406Z,21.03
2018-11-26T15:16:58.152Z,21.87
2018-11-26T15:19:30.011Z,20.63
2018-11-26T15:22:00.035Z,21.73
2018-11-26T15:24:30.154Z,20.53
2018-11-26T15:27:00.307Z,21.93
2018-11-26T15:29:30.982Z,20.17
2018-11-26T15:32:02.042Z,20.70
2018-11-26T15:34:32.263Z,20.90
2018-11-26T15:37:04.590Z,21.50
2018-11-26T15:39:34.766Z,18.40
2018-11-26T15:42:06.038Z,21.60
2018-11-26T15:44:36.319Z,19.77
2018-11-26T15:47:06.474Z,19.90
2018-11-26T15:49:36.524Z,18.03
2018-11-26T15:52:07.007Z,19.40
2018-11-26T15:54:37.746Z,18.73
2018-11-26T15:57:08.311Z,20.27
2018-11-26T15:59:38.522Z,19.70
2018-11-26T16:02:08.618Z,20.47
2018-11-26T16:04:39.378Z,18.90
2018-11-26T16:07:09.563Z,19.87
2018-11-26T16:09:39.737Z,19.60
2018-11-26T16:12:11.295Z,17.83
2018-11-26T16:14:42.356Z,20.90
2018-11-26T16:17:12.444Z,19.33
2018-11-26T16:19:42.602Z,20.73
2018-11-26T16:22:13.361Z,20.40
2018-11-26T16:24:44.050Z,18.90
2018-11-26T16:27:15.014Z,20.00
2018-11-26T16:29:45.551Z,21.10
2018-11-26T16:32:16.290Z,20.23
2018-11-26T16:34:47.740Z,19.83
2018-11-26T16:37:18.601Z,21.30
2018-11-26T16:39:48.794Z,21.73
2018-11-26T16:42:19.646Z,22.30
2018-11-26T16:44:49.657Z,20.00
2018-11-26T16:47:20.098Z,21.03
2018-11-26T16:49:51.372Z,20.10
2018-11-26T16:52:22.072Z,21.00
2018-11-26T16:54:53.369Z,19.47
2018-11-26T16:57:23.485Z,19.40
2018-11-26T16:59:55.330Z,21.60
2018-11-26T17:02:26.670Z,21.53
2018-11-26T17:04:57.409Z,20.40
2018-11-26T17:07:28.378Z,21.03
2018-11-26T17:09:58.514Z,20.60
2018-11-26T17:12:29.546Z,21.17
2018-11-26T17:15:00.229Z,20.40
2018-11-26T17:17:30.903Z,20.90
2018-11-26T17:20:01.688Z,20.93
2018-11-26T17:22:31.826Z,20.93
2018-11-26T17:25:02.706Z,23.50
2018-11-26T17:27:33.767Z,24.30
2018-11-26T17:30:05.276Z,21.97
2018-11-26T17:32:35.412Z,21.70
2018-11-26T17:35:06.763Z,21.00
2018-11-26T17:37:42.601Z,20.20
2018-11-26T17:40:12.145Z,21.53
2018-11-26T17:42:42.190Z,24.83
2018-11-26T17:45:13.957Z,23.83
2018-11-26T17:47:46.652Z,19.57
2018-11-26T17:50:27.778Z,18.30
2018-11-26T17:52:59.141Z,18.40
2018-11-26T17:55:29.970Z,20.73
2018-11-26T17:57:59.998Z,19.27
2018-11-26T18:00:34.565Z,20.30
2018-11-26T18:03:05.722Z,19.07
2018-11-26T18:05:35.901Z,20.10
2018-11-26T18:08:14.875Z,20.83
2018-11-26T18:10:45.269Z,18.97
2018-11-26T18:13:17.736Z,18.50
2018-11-26T18:15:49.197Z,20.67
2018-11-26T18:18:20.511Z,18.53
2018-11-26T18:20:51.531Z,17.77
2018-11-26T18:23:22.926Z,18.33
2018-11-26T18:25:53.758Z,19.50
2018-11-26T18:28:25.216Z,18.27
2018-11-26T18:30:55.542Z,18.80
2018-11-26T18:33:26.384Z,17.90
2018-11-26T18:35:57.745Z,18.17
2018-11-26T18:38:28.614Z,16.50
2018-11-26T18:40:58.828Z,15.70
2018-11-26T18:43:29.702Z,14.90
2018-11-26T18:45:59.970Z,14.50
2018-11-26T18:48:31.226Z,16.00
2018-11-26T18:51:02.446Z,15.20
2018-11-26T18:53:32.560Z,13.57
2018-11-26T18:56:03.130Z,14.63
2018-11-26T18:58:34.812Z,16.00
2018-11-26T19:01:07.524Z,17.27
2018-11-26T19:03:37.746Z,15.53
2018-11-26T19:06:08.174Z,15.37
2018-11-26T19:08:38.377Z,15.50
2018-11-26T19:11:11.910Z,14.57
2018-11-26T19:14:08.154Z,15.60
2018-11-26T19:16:41.784Z,15.70
2018-11-26T19:19:11.965Z,16.53
2018-11-26T19:21:42.839Z,15.23
2018-11-26T19:24:12.970Z,14.80
2018-11-26T19:26:43.756Z,15.43
2018-11-26T19:29:14.486Z,15.80
2018-11-26T19:31:45.389Z,16.40
2018-11-26T19:34:18.765Z,16.40
2018-11-26T19:36:49.672Z,15.60
2018-11-26T19:39:20.825Z,16.57
2018-11-26T19:41:52.263Z,15.70
2018-11-26T19:44:23.683Z,16.97
2018-11-26T19:46:53.825Z,15.90
2018-11-26T19:49:24.464Z,14.90
2018-11-26T19:51:55.301Z,14.90
2018-11-26T19:54:25.935Z,15.37
2018-11-26T19:56:57.873Z,14.93
2018-11-26T19:59:28.687Z,15.57
2018-11-26T20:02:00.125Z,14.30
2018-11-26T20:04:42.724Z,14.77
2018-11-26T20:07:13.022Z,16.97
2018-11-26T20:09:45.096Z,13.33
2018-11-26T20:12:15.815Z,15.00
2018-11-26T20:14:47.617Z,13.60
2018-11-26T20:17:18.322Z,13.93
2018-11-26T20:19:48.395Z,13.00
2018-11-26T20:22:19.841Z,15.00
2018-11-26T20:24:50.098Z,13.43
2018-11-26T20:27:22.602Z,13.47
2018-11-26T20:29:53.585Z,15.40
2018-11-26T20:32:30.123Z,15.93
2018-11-26T20:35:34.731Z,15.00
2018-11-26T20:38:05.874Z,14.67
2018-11-26T20:40:38.040Z,13.77
2018-11-26T20:43:11.508Z,14.30
2018-11-26T20:45:43.692Z,13.87
2018-11-26T20:48:14.330Z,18.10
2018-11-26T20:50:52.783Z,18.00
2018-11-26T20:53:25.715Z,19.43
2018-11-26T20:56:13.782Z,14.53
2018-11-26T20:58:44.398Z,15.47
2018-11-26T21:01:16.070Z,14.63
2018-11-26T21:03:46.465Z,13.60
2018-11-26T21:06:16.694Z,13.30
2018-11-26T21:08:47.064Z,13.80
2018-11-26T21:11:17.390Z,11.73
2018-11-26T21:13:47.614Z,13.40
2018-11-26T21:16:18.011Z,13.77
2018-11-26T21:18:48.330Z,12.80
2018-11-26T21:21:18.693Z,13.50
2018-11-26T21:23:49.157Z,11.63
2018-11-26T21:26:19.449Z,12.90
2018-11-26T21:28:49.921Z,12.80
2018-11-26T21:31:20.209Z,13.00
2018-11-26T21:33:50.541Z,13.10
2018-11-26T21:36:20.762Z,12.80
2018-11-26T21:38:51.106Z,11.87
2018-11-26T21:41:21.387Z,11.73
2018-11-26T21:43:51.775Z,11.50
2018-11-26T21:46:22.038Z,12.33
2018-11-26T21:48:52.339Z,11.90
2018-11-26T21:51:22.634Z,10.90
2018-11-26T21:53:52.853Z,10.77
2018-11-26T21:56:22.942Z,10.27
2018-11-26T21:58:53.365Z,10.00
2018-11-26T22:01:23.690Z,10.50
2018-11-26T22:03:54.106Z,10.63
2018-11-26T22:06:24.508Z,11.27
2018-11-26T22:08:54.741Z,11.13
2018-11-26T22:11:30.228Z,11.00
2018-11-26T22:13:55.429Z,11.17
2018-11-26T22:16:25.581Z,11.17
2018-11-26T22:18:55.960Z,11.57
2018-11-26T22:21:26.269Z,11.20
2018-11-26T22:23:56.511Z,11.20
2018-11-26T22:26:26.813Z,12.03
2018-11-26T22:28:57.221Z,12.00
2018-11-26T22:31:27.676Z,12.00
2018-11-26T22:33:57.961Z,11.50
2018-11-26T22:36:28.285Z,11.33
2018-11-26T22:38:58.717Z,11.90
2018-11-26T22:41:30.535Z,10.60
2018-11-26T22:44:01.392Z,12.47
2018-11-26T22:46:32.314Z,14.20
2018-11-26T22:49:03.024Z,15.23
2018-11-26T22:51:34.614Z,15.57
2018-11-26T22:54:05.143Z,16.83
2018-11-26T22:56:36.593Z,15.67
2018-11-26T22:59:06.947Z,15.97
2018-11-26T23:01:38.254Z,18.03
2018-11-26T23:04:08.914Z,16.80
2018-11-26T23:06:39.497Z,19.20
2018-11-26T23:09:12.291Z,18.13
2018-11-26T23:11:43.069Z,17.33
2018-11-26T23:14:14.331Z,17.60
2018-11-26T23:16:44.998Z,17.60
2018-11-26T23:19:15.917Z,18.43
2018-11-26T23:21:45.915Z,16.30
2018-11-26T23:24:17.394Z,17.23
2018-11-26T23:26:48.926Z,17.63
2018-11-26T23:29:20.587Z,18.93
2018-11-26T23:31:51.982Z,17.10
2018-11-26T23:34:22.538Z,16.80
2018-11-26T23:36:53.106Z,20.17
2018-11-26T23:39:23.941Z,17.07
2018-11-26T23:41:54.625Z,16.63
2018-11-26T23:44:24.703Z,17.13
2018-11-26T23:46:55.568Z,18.20
2018-11-26T23:49:26.596Z,17.90
2018-11-26T23:51:57.563Z,18.77
2018-11-26T23:54:29.011Z,17.20
2018-11-26T23:57:00.770Z,18.60
2018-11-26T23:59:31.629Z,20.23
